sensor_id;sensor_type;location;lat;lon;timestamp;temperature;humidity
14397;DHT22;50653;47.810;13.022;2022-10-22T00:01:02;15.60;99.90
14397;DHT22;50653;47.810;13.022;2022-10-22T00:03:27;15.60;99.90
14397;DHT22;50653;47.810;13.022;2022-10-22T00:05:53;15.60;99.90
14397;DHT22;50653;47.810;13.022;2022-10-22T00:08:19;15.60;99.90
14397;DHT22;50653;47.810;13.022;2022-10-22T00:10:44;15.50;99.90
14397;DHT22;50653;47.810;13.022;2022-10-22T00:13:10;15.40;99.90
14397;DHT22;50653;47.810;13.022;2022-10-22T00:15:36;15.40;99.90
14397;DHT22;50653;47.810;13.022;2022-10-22T00:18:02;15.40;99.90
14397;DHT22;50653;47.810;13.022;2022-10-22T00:20:27;15.50;99.90
14397;DHT22;50653;47.810;13.022;2022-10-22T00:22:53;15.40;99.90
14397;DHT22;50653;47.810;13.022;2022-10-22T00:25:19;15.40;99.90
14397;DHT22;50653;47.810;13.022;2022-10-22T00:27:44;15.40;99.90
14397;DHT22;50653;47.810;13.022;2022-10-22T00:30:11;15.20;99.90
14397;DHT22;50653;47.810;13.022;2022-10-22T00:32:36;15.00;99.90
14397;DHT22;50653;47.810;13.022;2022-10-22T00:35:02;15.20;99.90
14397;DHT22;50653;47.810;13.022;2022-10-22T00:37:28;15.20;99.90
14397;DHT22;50653;47.810;13.022;2022-10-22T00:39:55;15.20;99.90
14397;DHT22;50653;47.810;13.022;2022-10-22T00:42:23;15.20;99.90
14397;DHT22;50653;47.810;13.022;2022-10-22T00:45:16;15.10;99.90
14397;DHT22;50653;47.810;13.022;2022-10-22T00:48:00;15.10;99.90
14397;DHT22;50653;47.810;13.022;2022-10-22T00:50:30;15.10;99.90
14397;DHT22;50653;47.810;13.022;2022-10-22T00:52:58;15.00;99.90
14397;DHT22;50653;47.810;13.022;2022-10-22T00:55:25;15.00;99.90
14397;DHT22;50653;47.810;13.022;2022-10-22T00:57:54;15.00;99.90
14397;DHT22;50653;47.810;13.022;2022-10-22T01:00:20;14.90;99.90
14397;DHT22;50653;47.810;13.022;2022-10-22T01:02:48;15.00;99.90
14397;DHT22;50653;47.810;13.022;2022-10-22T01:05:14;14.90;99.90
14397;DHT22;50653;47.810;13.022;2022-10-22T01:07:51;14.80;99.90
14397;DHT22;50653;47.810;13.022;2022-10-22T01:10:33;14.90;99.90
14397;DHT22;50653;47.810;13.022;2022-10-22T01:16:09;14.80;99.90
14397;DHT22;50653;47.810;13.022;2022-10-22T01:18:54;14.90;99.90
14397;DHT22;50653;47.810;13.022;2022-10-22T01:21:36;14.90;99.90
14397;DHT22;50653;47.810;13.022;2022-10-22T01:29:26;14.80;99.90
14397;DHT22;50653;47.810;13.022;2022-10-22T01:31:58;15.00;99.90
14397;DHT22;50653;47.810;13.022;2022-10-22T01:34:27;15.00;99.90
14397;DHT22;50653;47.810;13.022;2022-10-22T01:36:54;15.00;99.90
14397;DHT22;50653;47.810;13.022;2022-10-22T01:39:21;15.00;99.90
14397;DHT22;50653;47.810;13.022;2022-10-22T01:41:47;15.00;99.90
14397;DHT22;50653;47.810;13.022;2022-10-22T01:58:42;15.00;99.90
14397;DHT22;50653;47.810;13.022;2022-10-22T02:01:41;15.00;99.90
14397;DHT22;50653;47.810;13.022;2022-10-22T02:04:19;15.00;99.90
14397;DHT22;50653;47.810;13.022;2022-10-22T02:06:49;14.90;99.90
14397;DHT22;50653;47.810;13.022;2022-10-22T02:09:16;14.70;99.90
14397;DHT22;50653;47.810;13.022;2022-10-22T02:11:44;14.60;99.90
14397;DHT22;50653;47.810;13.022;2022-10-22T02:14:11;14.60;99.90
14397;DHT22;50653;47.810;13.022;2022-10-22T02:16:43;14.70;99.90
14397;DHT22;50653;47.810;13.022;2022-10-22T02:19:31;14.70;99.90
14397;DHT22;50653;47.810;13.022;2022-10-22T02:21:57;14.50;99.90
14397;DHT22;50653;47.810;13.022;2022-10-22T02:24:24;14.50;99.90
14397;DHT22;50653;47.810;13.022;2022-10-22T02:27:20;14.50;99.90
14397;DHT22;50653;47.810;13.022;2022-10-22T02:29:54;14.70;99.90
14397;DHT22;50653;47.810;13.022;2022-10-22T02:32:25;14.50;99.90
14397;DHT22;50653;47.810;13.022;2022-10-22T02:34:53;14.50;99.90
14397;DHT22;50653;47.810;13.022;2022-10-22T02:37:20;14.50;99.90
14397;DHT22;50653;47.810;13.022;2022-10-22T02:39:46;14.60;99.90
14397;DHT22;50653;47.810;13.022;2022-10-22T02:42:13;14.60;99.90
14397;DHT22;50653;47.810;13.022;2022-10-22T02:44:39;14.70;99.90
14397;DHT22;50653;47.810;13.022;2022-10-22T02:47:05;14.80;99.90
14397;DHT22;50653;47.810;13.022;2022-10-22T02:49:30;14.80;99.90
14397;DHT22;50653;47.810;13.022;2022-10-22T02:51:56;14.70;99.90
14397;DHT22;50653;47.810;13.022;2022-10-22T02:54:21;14.60;99.90
14397;DHT22;50653;47.810;13.022;2022-10-22T02:56:47;14.70;99.90
14397;DHT22;50653;47.810;13.022;2022-10-22T02:59:13;14.70;99.90
14397;DHT22;50653;47.810;13.022;2022-10-22T03:01:38;14.50;99.90
14397;DHT22;50653;47.810;13.022;2022-10-22T03:04:04;14.50;99.90
14397;DHT22;50653;47.810;13.022;2022-10-22T03:06:30;14.40;99.90
14397;DHT22;50653;47.810;13.022;2022-10-22T03:08:55;14.20;99.90
14397;DHT22;50653;47.810;13.022;2022-10-22T03:11:21;14.30;99.90
14397;DHT22;50653;47.810;13.022;2022-10-22T03:13:46;14.40;99.90
14397;DHT22;50653;47.810;13.022;2022-10-22T03:16:12;14.30;99.90
14397;DHT22;50653;47.810;13.022;2022-10-22T03:18:38;14.30;99.90
14397;DHT22;50653;47.810;13.022;2022-10-22T03:24:11;14.10;99.90
14397;DHT22;50653;47.810;13.022;2022-10-22T03:26:38;14.10;99.90
14397;DHT22;50653;47.810;13.022;2022-10-22T03:29:06;14.00;99.90
14397;DHT22;50653;47.810;13.022;2022-10-22T03:31:32;14.10;99.90
14397;DHT22;50653;47.810;13.022;2022-10-22T03:33:57;14.10;99.90
14397;DHT22;50653;47.810;13.022;2022-10-22T03:36:24;14.10;99.90
14397;DHT22;50653;47.810;13.022;2022-10-22T03:38:49;14.10;99.90
14397;DHT22;50653;47.810;13.022;2022-10-22T03:41:15;14.10;99.90
14397;DHT22;50653;47.810;13.022;2022-10-22T03:43:41;14.00;99.90
14397;DHT22;50653;47.810;13.022;2022-10-22T03:46:06;14.00;99.90
14397;DHT22;50653;47.810;13.022;2022-10-22T03:48:32;14.00;99.90
14397;DHT22;50653;47.810;13.022;2022-10-22T03:50:58;14.10;99.90
14397;DHT22;50653;47.810;13.022;2022-10-22T03:53:23;14.20;99.90
14397;DHT22;50653;47.810;13.022;2022-10-22T03:55:49;14.10;99.90
14397;DHT22;50653;47.810;13.022;2022-10-22T03:58:15;14.10;99.90
14397;DHT22;50653;47.810;13.022;2022-10-22T04:00:40;14.10;99.90
14397;DHT22;50653;47.810;13.022;2022-10-22T04:03:06;14.00;99.90
14397;DHT22;50653;47.810;13.022;2022-10-22T04:05:32;14.00;99.90
14397;DHT22;50653;47.810;13.022;2022-10-22T04:07:58;14.00;99.90
14397;DHT22;50653;47.810;13.022;2022-10-22T04:10:24;14.00;99.90
14397;DHT22;50653;47.810;13.022;2022-10-22T04:12:49;14.00;99.90
14397;DHT22;50653;47.810;13.022;2022-10-22T04:15:15;14.00;99.90
14397;DHT22;50653;47.810;13.022;2022-10-22T04:17:41;14.00;99.90
14397;DHT22;50653;47.810;13.022;2022-10-22T04:20:07;14.00;99.90
14397;DHT22;50653;47.810;13.022;2022-10-22T04:22:34;14.00;99.90
14397;DHT22;50653;47.810;13.022;2022-10-22T04:25:00;14.00;99.90
14397;DHT22;50653;47.810;13.022;2022-10-22T04:27:33;14.00;99.90
14397;DHT22;50653;47.810;13.022;2022-10-22T04:29:58;14.00;99.90
14397;DHT22;50653;47.810;13.022;2022-10-22T04:32:26;14.00;99.90
14397;DHT22;50653;47.810;13.022;2022-10-22T04:34:51;14.00;99.90
14397;DHT22;50653;47.810;13.022;2022-10-22T04:37:17;14.00;99.90
14397;DHT22;50653;47.810;13.022;2022-10-22T04:39:43;14.10;99.90
14397;DHT22;50653;47.810;13.022;2022-10-22T04:42:08;14.10;99.90
14397;DHT22;50653;47.810;13.022;2022-10-22T04:44:34;14.10;99.90
14397;DHT22;50653;47.810;13.022;2022-10-22T04:46:59;14.30;99.90
14397;DHT22;50653;47.810;13.022;2022-10-22T04:49:25;14.20;99.90
14397;DHT22;50653;47.810;13.022;2022-10-22T04:51:51;14.20;99.90
14397;DHT22;50653;47.810;13.022;2022-10-22T04:54:16;14.20;99.90
14397;DHT22;50653;47.810;13.022;2022-10-22T04:56:42;14.20;99.90
14397;DHT22;50653;47.810;13.022;2022-10-22T04:59:09;14.20;99.90
14397;DHT22;50653;47.810;13.022;2022-10-22T05:01:41;14.20;99.90
14397;DHT22;50653;47.810;13.022;2022-10-22T05:04:10;14.20;99.90
14397;DHT22;50653;47.810;13.022;2022-10-22T05:06:36;14.30;99.90
14397;DHT22;50653;47.810;13.022;2022-10-22T05:09:05;14.30;99.90
14397;DHT22;50653;47.810;13.022;2022-10-22T05:11:36;14.30;99.90
14397;DHT22;50653;47.810;13.022;2022-10-22T05:14:04;14.40;99.90
14397;DHT22;50653;47.810;13.022;2022-10-22T05:16:32;14.30;99.90
14397;DHT22;50653;47.810;13.022;2022-10-22T05:18:59;14.40;99.90
14397;DHT22;50653;47.810;13.022;2022-10-22T05:21:26;14.40;99.90
14397;DHT22;50653;47.810;13.022;2022-10-22T05:23:53;14.40;99.90
14397;DHT22;50653;47.810;13.022;2022-10-22T05:26:20;14.50;99.90
14397;DHT22;50653;47.810;13.022;2022-10-22T05:28:47;14.50;99.90
14397;DHT22;50653;47.810;13.022;2022-10-22T05:31:14;14.50;99.90
14397;DHT22;50653;47.810;13.022;2022-10-22T05:33:41;14.60;99.90
14397;DHT22;50653;47.810;13.022;2022-10-22T05:36:08;14.60;99.90
14397;DHT22;50653;47.810;13.022;2022-10-22T05:38:35;14.70;99.90
14397;DHT22;50653;47.810;13.022;2022-10-22T05:41:01;14.60;99.90
14397;DHT22;50653;47.810;13.022;2022-10-22T05:43:27;14.70;99.90
14397;DHT22;50653;47.810;13.022;2022-10-22T05:45:54;14.60;99.90
14397;DHT22;50653;47.810;13.022;2022-10-22T05:48:19;14.60;99.90
14397;DHT22;50653;47.810;13.022;2022-10-22T05:50:45;14.60;99.90
14397;DHT22;50653;47.810;13.022;2022-10-22T05:53:16;14.60;99.90
14397;DHT22;50653;47.810;13.022;2022-10-22T05:55:42;14.60;99.90
14397;DHT22;50653;47.810;13.022;2022-10-22T05:58:12;14.60;99.90
14397;DHT22;50653;47.810;13.022;2022-10-22T06:00:38;14.70;99.90
14397;DHT22;50653;47.810;13.022;2022-10-22T06:03:04;14.70;99.90
14397;DHT22;50653;47.810;13.022;2022-10-22T06:05:30;14.80;99.90
14397;DHT22;50653;47.810;13.022;2022-10-22T06:07:59;14.80;99.90
14397;DHT22;50653;47.810;13.022;2022-10-22T06:10:25;14.90;99.90
14397;DHT22;50653;47.810;13.022;2022-10-22T06:12:51;14.90;99.90
14397;DHT22;50653;47.810;13.022;2022-10-22T06:15:17;14.90;99.90
14397;DHT22;50653;47.810;13.022;2022-10-22T06:17:44;14.90;99.90
14397;DHT22;50653;47.810;13.022;2022-10-22T06:20:10;14.90;99.90
14397;DHT22;50653;47.810;13.022;2022-10-22T06:22:36;14.90;99.90
14397;DHT22;50653;47.810;13.022;2022-10-22T06:25:03;14.90;99.90
14397;DHT22;50653;47.810;13.022;2022-10-22T06:27:28;14.80;99.90
14397;DHT22;50653;47.810;13.022;2022-10-22T06:29:54;14.80;99.90
14397;DHT22;50653;47.810;13.022;2022-10-22T06:32:20;14.80;99.90
14397;DHT22;50653;47.810;13.022;2022-10-22T06:34:45;14.80;99.90
14397;DHT22;50653;47.810;13.022;2022-10-22T06:37:12;14.80;99.90
14397;DHT22;50653;47.810;13.022;2022-10-22T06:39:39;14.80;99.90
14397;DHT22;50653;47.810;13.022;2022-10-22T06:42:05;14.70;99.90
14397;DHT22;50653;47.810;13.022;2022-10-22T06:44:33;14.80;99.90
14397;DHT22;50653;47.810;13.022;2022-10-22T06:46:59;14.60;99.90
14397;DHT22;50653;47.810;13.022;2022-10-22T06:49:24;14.70;99.90
14397;DHT22;50653;47.810;13.022;2022-10-22T06:51:52;14.70;99.90
14397;DHT22;50653;47.810;13.022;2022-10-22T06:54:18;14.60;99.90
14397;DHT22;50653;47.810;13.022;2022-10-22T06:56:44;14.60;99.90
14397;DHT22;50653;47.810;13.022;2022-10-22T06:59:09;14.60;99.90
14397;DHT22;50653;47.810;13.022;2022-10-22T07:01:36;14.60;99.90
14397;DHT22;50653;47.810;13.022;2022-10-22T07:04:03;14.50;99.90
14397;DHT22;50653;47.810;13.022;2022-10-22T07:06:29;14.40;99.90
14397;DHT22;50653;47.810;13.022;2022-10-22T07:08:56;14.30;99.90
14397;DHT22;50653;47.810;13.022;2022-10-22T07:11:25;14.40;99.90
14397;DHT22;50653;47.810;13.022;2022-10-22T07:13:53;14.30;99.90
14397;DHT22;50653;47.810;13.022;2022-10-22T07:16:19;14.40;99.90
14397;DHT22;50653;47.810;13.022;2022-10-22T07:18:46;14.50;99.90
14397;DHT22;50653;47.810;13.022;2022-10-22T07:21:13;14.50;99.90
14397;DHT22;50653;47.810;13.022;2022-10-22T07:23:38;14.30;99.90
14397;DHT22;50653;47.810;13.022;2022-10-22T07:26:05;14.40;99.90
14397;DHT22;50653;47.810;13.022;2022-10-22T07:28:35;14.50;99.90
14397;DHT22;50653;47.810;13.022;2022-10-22T07:31:03;14.50;99.90
14397;DHT22;50653;47.810;13.022;2022-10-22T07:33:28;14.50;99.90
14397;DHT22;50653;47.810;13.022;2022-10-22T07:35:58;14.50;99.90
14397;DHT22;50653;47.810;13.022;2022-10-22T07:38:24;14.60;99.90
14397;DHT22;50653;47.810;13.022;2022-10-22T07:40:50;14.70;99.90
14397;DHT22;50653;47.810;13.022;2022-10-22T07:43:16;14.60;99.90
14397;DHT22;50653;47.810;13.022;2022-10-22T07:45:41;14.60;99.90
14397;DHT22;50653;47.810;13.022;2022-10-22T07:48:07;14.60;99.90
14397;DHT22;50653;47.810;13.022;2022-10-22T07:50:32;14.60;99.90
14397;DHT22;50653;47.810;13.022;2022-10-22T07:52:58;14.60;99.90
14397;DHT22;50653;47.810;13.022;2022-10-22T07:55:24;14.50;99.90
14397;DHT22;50653;47.810;13.022;2022-10-22T07:57:50;14.60;99.90
14397;DHT22;50653;47.810;13.022;2022-10-22T08:00:15;14.60;99.90
14397;DHT22;50653;47.810;13.022;2022-10-22T08:02:44;14.50;99.90
14397;DHT22;50653;47.810;13.022;2022-10-22T08:05:10;14.60;99.90
14397;DHT22;50653;47.810;13.022;2022-10-22T08:07:37;14.60;99.90
14397;DHT22;50653;47.810;13.022;2022-10-22T08:10:03;14.60;99.90
14397;DHT22;50653;47.810;13.022;2022-10-22T08:12:29;14.50;99.90
14397;DHT22;50653;47.810;13.022;2022-10-22T08:14:55;14.60;99.90
14397;DHT22;50653;47.810;13.022;2022-10-22T08:17:20;14.60;99.90
14397;DHT22;50653;47.810;13.022;2022-10-22T08:19:46;14.60;99.90
14397;DHT22;50653;47.810;13.022;2022-10-22T08:22:11;14.60;99.90
14397;DHT22;50653;47.810;13.022;2022-10-22T08:24:37;14.60;99.90
14397;DHT22;50653;47.810;13.022;2022-10-22T08:27:03;14.60;99.90
14397;DHT22;50653;47.810;13.022;2022-10-22T08:29:28;14.50;99.90
14397;DHT22;50653;47.810;13.022;2022-10-22T08:31:54;14.60;99.90
14397;DHT22;50653;47.810;13.022;2022-10-22T08:34:19;14.50;99.90
14397;DHT22;50653;47.810;13.022;2022-10-22T08:36:45;14.60;99.90
14397;DHT22;50653;47.810;13.022;2022-10-22T08:39:11;14.50;99.90
14397;DHT22;50653;47.810;13.022;2022-10-22T08:42:03;14.60;99.90
14397;DHT22;50653;47.810;13.022;2022-10-22T08:44:58;14.70;99.90
14397;DHT22;50653;47.810;13.022;2022-10-22T08:47:45;14.60;99.90
14397;DHT22;50653;47.810;13.022;2022-10-22T08:50:18;14.60;99.90
14397;DHT22;50653;47.810;13.022;2022-10-22T08:52:46;14.70;99.90
14397;DHT22;50653;47.810;13.022;2022-10-22T08:55:15;14.70;99.90
14397;DHT22;50653;47.810;13.022;2022-10-22T09:00:34;14.70;99.90
14397;DHT22;50653;47.810;13.022;2022-10-22T09:03:13;14.60;99.90
14397;DHT22;50653;47.810;13.022;2022-10-22T09:08:37;14.60;99.90
14397;DHT22;50653;47.810;13.022;2022-10-22T09:13:35;14.50;99.90
14397;DHT22;50653;47.810;13.022;2022-10-22T09:18:52;14.60;99.90
14397;DHT22;50653;47.810;13.022;2022-10-22T09:24:43;14.70;99.90
14397;DHT22;50653;47.810;13.022;2022-10-22T09:29:36;14.80;99.90
14397;DHT22;50653;47.810;13.022;2022-10-22T09:32:02;14.80;99.90
14397;DHT22;50653;47.810;13.022;2022-10-22T09:34:28;14.80;99.90
14397;DHT22;50653;47.810;13.022;2022-10-22T09:37:03;14.90;99.90
14397;DHT22;50653;47.810;13.022;2022-10-22T09:39:40;14.90;99.90
14397;DHT22;50653;47.810;13.022;2022-10-22T09:42:07;14.90;99.90
14397;DHT22;50653;47.810;13.022;2022-10-22T09:44:34;14.80;99.90
14397;DHT22;50653;47.810;13.022;2022-10-22T09:47:05;14.90;99.90
14397;DHT22;50653;47.810;13.022;2022-10-22T09:49:34;14.90;99.90
14397;DHT22;50653;47.810;13.022;2022-10-22T09:52:00;14.80;99.90
14397;DHT22;50653;47.810;13.022;2022-10-22T09:59:37;15.00;99.90
14397;DHT22;50653;47.810;13.022;2022-10-22T10:04:35;15.00;99.90
14397;DHT22;50653;47.810;13.022;2022-10-22T10:07:24;15.00;99.90
14397;DHT22;50653;47.810;13.022;2022-10-22T10:09:52;15.00;99.90
14397;DHT22;50653;47.810;13.022;2022-10-22T10:15:24;15.00;99.90
14397;DHT22;50653;47.810;13.022;2022-10-22T10:18:09;15.10;99.90
14397;DHT22;50653;47.810;13.022;2022-10-22T10:20:47;15.00;99.90
14397;DHT22;50653;47.810;13.022;2022-10-22T10:23:17;15.10;99.90
14397;DHT22;50653;47.810;13.022;2022-10-22T10:26:00;15.10;99.90
14397;DHT22;50653;47.810;13.022;2022-10-22T10:42:26;15.20;99.90
14397;DHT22;50653;47.810;13.022;2022-10-22T10:48:11;15.20;99.90
14397;DHT22;50653;47.810;13.022;2022-10-22T10:51:02;15.20;99.90
14397;DHT22;50653;47.810;13.022;2022-10-22T10:53:51;15.20;99.90
14397;DHT22;50653;47.810;13.022;2022-10-22T10:56:53;15.20;99.90
14397;DHT22;50653;47.810;13.022;2022-10-22T10:59:29;15.20;99.90
14397;DHT22;50653;47.810;13.022;2022-10-22T11:04:57;15.20;99.90
14397;DHT22;50653;47.810;13.022;2022-10-22T11:07:30;15.20;99.90
14397;DHT22;50653;47.810;13.022;2022-10-22T11:10:21;15.20;99.90
14397;DHT22;50653;47.810;13.022;2022-10-22T11:12:49;15.30;99.90
14397;DHT22;50653;47.810;13.022;2022-10-22T11:15:36;15.30;99.90
14397;DHT22;50653;47.810;13.022;2022-10-22T11:18:15;15.20;99.90
14397;DHT22;50653;47.810;13.022;2022-10-22T11:20:49;15.30;99.90
14397;DHT22;50653;47.810;13.022;2022-10-22T11:23:21;15.30;99.90
14397;DHT22;50653;47.810;13.022;2022-10-22T11:25:49;15.30;99.90
14397;DHT22;50653;47.810;13.022;2022-10-22T11:28:38;15.30;99.90
14397;DHT22;50653;47.810;13.022;2022-10-22T11:31:16;15.30;99.90
14397;DHT22;50653;47.810;13.022;2022-10-22T11:33:54;15.30;99.90
14397;DHT22;50653;47.810;13.022;2022-10-22T11:36:24;15.30;99.90
14397;DHT22;50653;47.810;13.022;2022-10-22T11:38:52;15.30;99.90
14397;DHT22;50653;47.810;13.022;2022-10-22T11:41:23;15.30;99.90
14397;DHT22;50653;47.810;13.022;2022-10-22T11:49:17;15.30;99.90
14397;DHT22;50653;47.810;13.022;2022-10-22T11:51:44;15.30;99.90
14397;DHT22;50653;47.810;13.022;2022-10-22T11:54:40;15.30;99.90
14397;DHT22;50653;47.810;13.022;2022-10-22T12:02:39;15.40;99.90
14397;DHT22;50653;47.810;13.022;2022-10-22T12:08:13;15.40;99.90
14397;DHT22;50653;47.810;13.022;2022-10-22T12:11:03;15.40;99.90
14397;DHT22;50653;47.810;13.022;2022-10-22T12:16:24;15.40;99.90
14397;DHT22;50653;47.810;13.022;2022-10-22T12:19:01;15.30;99.90
14397;DHT22;50653;47.810;13.022;2022-10-22T12:21:27;15.40;99.90
14397;DHT22;50653;47.810;13.022;2022-10-22T12:23:53;15.40;99.90
14397;DHT22;50653;47.810;13.022;2022-10-22T12:26:29;15.30;99.90
14397;DHT22;50653;47.810;13.022;2022-10-22T12:28:59;15.30;99.90
14397;DHT22;50653;47.810;13.022;2022-10-22T12:31:25;15.30;99.90
14397;DHT22;50653;47.810;13.022;2022-10-22T12:33:58;15.30;99.90
14397;DHT22;50653;47.810;13.022;2022-10-22T12:36:32;15.40;99.90
14397;DHT22;50653;47.810;13.022;2022-10-22T12:39:02;15.40;99.90
14397;DHT22;50653;47.810;13.022;2022-10-22T12:41:35;15.40;99.90
14397;DHT22;50653;47.810;13.022;2022-10-22T12:44:04;15.50;99.90
14397;DHT22;50653;47.810;13.022;2022-10-22T12:46:32;15.50;99.90
14397;DHT22;50653;47.810;13.022;2022-10-22T12:48:59;15.50;99.90
14397;DHT22;50653;47.810;13.022;2022-10-22T12:51:26;15.50;99.90
14397;DHT22;50653;47.810;13.022;2022-10-22T12:53:59;15.50;99.90
14397;DHT22;50653;47.810;13.022;2022-10-22T12:56:32;15.50;99.90
14397;DHT22;50653;47.810;13.022;2022-10-22T12:59:00;15.60;99.90
14397;DHT22;50653;47.810;13.022;2022-10-22T13:01:31;15.60;99.90
14397;DHT22;50653;47.810;13.022;2022-10-22T13:04:18;15.60;99.90
14397;DHT22;50653;47.810;13.022;2022-10-22T13:07:01;15.60;99.90
14397;DHT22;50653;47.810;13.022;2022-10-22T13:09:40;15.60;99.90
14397;DHT22;50653;47.810;13.022;2022-10-22T13:12:08;15.60;99.90
14397;DHT22;50653;47.810;13.022;2022-10-22T13:14:39;15.60;99.90
14397;DHT22;50653;47.810;13.022;2022-10-22T13:17:08;15.60;99.90
14397;DHT22;50653;47.810;13.022;2022-10-22T13:19:39;15.70;99.90
14397;DHT22;50653;47.810;13.022;2022-10-22T13:22:24;15.70;99.90
14397;DHT22;50653;47.810;13.022;2022-10-22T13:24:50;15.70;99.90
14397;DHT22;50653;47.810;13.022;2022-10-22T13:27:16;15.70;99.90
14397;DHT22;50653;47.810;13.022;2022-10-22T13:29:42;15.70;99.90
14397;DHT22;50653;47.810;13.022;2022-10-22T13:32:27;15.70;99.90
14397;DHT22;50653;47.810;13.022;2022-10-22T13:34:55;15.70;99.90
14397;DHT22;50653;47.810;13.022;2022-10-22T13:37:21;15.80;99.90
14397;DHT22;50653;47.810;13.022;2022-10-22T13:39:46;15.80;99.90
14397;DHT22;50653;47.810;13.022;2022-10-22T13:42:12;15.80;99.90
14397;DHT22;50653;47.810;13.022;2022-10-22T13:44:38;15.80;99.90
14397;DHT22;50653;47.810;13.022;2022-10-22T13:47:20;15.80;99.90
14397;DHT22;50653;47.810;13.022;2022-10-22T13:49:48;15.80;99.90
14397;DHT22;50653;47.810;13.022;2022-10-22T13:52:23;15.90;99.90
14397;DHT22;50653;47.810;13.022;2022-10-22T13:54:50;15.90;99.90
14397;DHT22;50653;47.810;13.022;2022-10-22T13:57:16;15.90;99.90
14397;DHT22;50653;47.810;13.022;2022-10-22T13:59:41;15.90;99.90
14397;DHT22;50653;47.810;13.022;2022-10-22T14:02:10;15.90;99.90
14397;DHT22;50653;47.810;13.022;2022-10-22T14:04:38;16.00;99.90
14397;DHT22;50653;47.810;13.022;2022-10-22T14:07:15;15.90;99.90
14397;DHT22;50653;47.810;13.022;2022-10-22T14:09:42;15.90;99.90
14397;DHT22;50653;47.810;13.022;2022-10-22T14:12:12;15.90;99.90
14397;DHT22;50653;47.810;13.022;2022-10-22T14:14:38;16.00;99.90
14397;DHT22;50653;47.810;13.022;2022-10-22T14:17:04;16.00;99.90
14397;DHT22;50653;47.810;13.022;2022-10-22T14:19:30;16.10;99.90
14397;DHT22;50653;47.810;13.022;2022-10-22T14:21:56;16.10;99.90
14397;DHT22;50653;47.810;13.022;2022-10-22T14:24:22;16.10;99.90
14397;DHT22;50653;47.810;13.022;2022-10-22T14:26:47;16.10;99.90
14397;DHT22;50653;47.810;13.022;2022-10-22T14:29:13;16.20;99.90
14397;DHT22;50653;47.810;13.022;2022-10-22T14:31:40;16.20;99.90
14397;DHT22;50653;47.810;13.022;2022-10-22T14:34:07;16.20;99.90
14397;DHT22;50653;47.810;13.022;2022-10-22T14:36:34;16.30;99.90
14397;DHT22;50653;47.810;13.022;2022-10-22T14:38:59;16.30;99.90
14397;DHT22;50653;47.810;13.022;2022-10-22T14:41:27;16.30;99.90
14397;DHT22;50653;47.810;13.022;2022-10-22T14:43:54;16.30;99.90
14397;DHT22;50653;47.810;13.022;2022-10-22T14:46:20;16.30;99.90
14397;DHT22;50653;47.810;13.022;2022-10-22T14:48:46;16.30;99.90
14397;DHT22;50653;47.810;13.022;2022-10-22T14:51:17;16.30;99.90
14397;DHT22;50653;47.810;13.022;2022-10-22T14:53:44;16.30;99.90
14397;DHT22;50653;47.810;13.022;2022-10-22T14:56:11;16.30;99.90
14397;DHT22;50653;47.810;13.022;2022-10-22T14:58:37;16.30;99.90
14397;DHT22;50653;47.810;13.022;2022-10-22T15:01:03;16.40;99.90
14397;DHT22;50653;47.810;13.022;2022-10-22T15:03:29;16.30;99.90
14397;DHT22;50653;47.810;13.022;2022-10-22T15:05:55;16.30;99.90
14397;DHT22;50653;47.810;13.022;2022-10-22T15:08:21;16.30;99.90
14397;DHT22;50653;47.810;13.022;2022-10-22T15:11:01;16.30;99.90
14397;DHT22;50653;47.810;13.022;2022-10-22T15:13:28;16.30;99.90
14397;DHT22;50653;47.810;13.022;2022-10-22T15:15:54;16.30;99.90
14397;DHT22;50653;47.810;13.022;2022-10-22T15:18:20;16.30;99.90
14397;DHT22;50653;47.810;13.022;2022-10-22T15:21:00;16.20;99.90
14397;DHT22;50653;47.810;13.022;2022-10-22T15:23:26;16.20;99.90
14397;DHT22;50653;47.810;13.022;2022-10-22T15:25:52;16.20;99.90
14397;DHT22;50653;47.810;13.022;2022-10-22T15:28:17;16.20;99.90
14397;DHT22;50653;47.810;13.022;2022-10-22T15:30:43;16.20;99.90
14397;DHT22;50653;47.810;13.022;2022-10-22T15:33:08;16.20;99.90
14397;DHT22;50653;47.810;13.022;2022-10-22T15:35:35;16.10;99.90
14397;DHT22;50653;47.810;13.022;2022-10-22T15:38:00;16.10;99.90
14397;DHT22;50653;47.810;13.022;2022-10-22T15:40:26;16.10;99.90
14397;DHT22;50653;47.810;13.022;2022-10-22T15:42:52;16.10;99.90
14397;DHT22;50653;47.810;13.022;2022-10-22T15:45:17;16.00;99.90
14397;DHT22;50653;47.810;13.022;2022-10-22T15:47:46;16.00;99.90
14397;DHT22;50653;47.810;13.022;2022-10-22T15:50:12;16.00;99.90
14397;DHT22;50653;47.810;13.022;2022-10-22T15:52:37;16.00;99.90
14397;DHT22;50653;47.810;13.022;2022-10-22T15:55:03;16.00;99.90
14397;DHT22;50653;47.810;13.022;2022-10-22T15:57:31;15.90;99.90
14397;DHT22;50653;47.810;13.022;2022-10-22T15:59:57;15.90;99.90
14397;DHT22;50653;47.810;13.022;2022-10-22T16:02:23;15.90;99.90
14397;DHT22;50653;47.810;13.022;2022-10-22T16:04:49;15.90;99.90
14397;DHT22;50653;47.810;13.022;2022-10-22T16:07:14;15.80;99.90
14397;DHT22;50653;47.810;13.022;2022-10-22T16:09:40;15.80;99.90
14397;DHT22;50653;47.810;13.022;2022-10-22T16:12:05;15.80;99.90
14397;DHT22;50653;47.810;13.022;2022-10-22T16:14:31;15.80;99.90
14397;DHT22;50653;47.810;13.022;2022-10-22T16:16:57;15.70;99.90
14397;DHT22;50653;47.810;13.022;2022-10-22T16:19:24;15.80;99.90
14397;DHT22;50653;47.810;13.022;2022-10-22T16:21:53;15.70;99.90
14397;DHT22;50653;47.810;13.022;2022-10-22T16:24:20;15.70;99.90
14397;DHT22;50653;47.810;13.022;2022-10-22T16:26:46;15.60;99.90
14397;DHT22;50653;47.810;13.022;2022-10-22T16:29:12;15.60;99.90
14397;DHT22;50653;47.810;13.022;2022-10-22T16:31:39;15.60;99.90
14397;DHT22;50653;47.810;13.022;2022-10-22T16:34:06;15.60;99.90
14397;DHT22;50653;47.810;13.022;2022-10-22T16:36:31;15.50;99.90
14397;DHT22;50653;47.810;13.022;2022-10-22T16:38:57;15.40;99.90
14397;DHT22;50653;47.810;13.022;2022-10-22T16:41:24;15.40;99.90
14397;DHT22;50653;47.810;13.022;2022-10-22T16:43:53;15.40;99.90
14397;DHT22;50653;47.810;13.022;2022-10-22T16:46:20;15.30;99.90
14397;DHT22;50653;47.810;13.022;2022-10-22T16:48:50;15.30;99.90
14397;DHT22;50653;47.810;13.022;2022-10-22T16:51:18;15.30;99.90
14397;DHT22;50653;47.810;13.022;2022-10-22T16:53:44;15.30;99.90
14397;DHT22;50653;47.810;13.022;2022-10-22T16:56:12;15.20;99.90